Terminal Aerodrome Forecast
Issued by NWS Goodland, KS

Home | Current Version | Previous Version | Text Only | Print | Product List | Glossary On
Versions: 1 2 3 4 5 6 7 8 9 10 11 12 13 14 15 16 17 18 19 20
136
FTUS43 KGLD 232329
TAFGLD
TAF
KGLD 232329Z 2400/2424 02010KT P6SM SCT250
     FM241100 36007KT P6SM VCSH SCT050 BKN150
     FM241500 03013G19KT P6SM VCSH SCT050 BKN100 PROB30 2415/2420
      6SM -TSRA OVC040CB
     FM242200 07010KT P6SM SCT100 BKN250=

USA.gov is the U.S. government's official web portal to all federal, state and local government web resources and services.